Everton, Missouri
Current Conditions -  °F | °C
As of 11:52 PM on Wednesday 28 Jan 2015 (Local Time) from KSGF Reporting Station
Clear Clear  
Wind Chill: 57°   Ceiling: Unl
Heat Index: 57°   Visibility: 10mi
Dew Point: 41°   Wind: 14mph
Humidity: 55%   Direction: 220°SW
Pressure: 29.86"   Gusts: NA
Location:  37.34°N, 93.7°W
Report Text: KSGF 290552Z 22012KT 10SM CLR 14/05 A2986 RMK AO2 SLP106 T01390050 10172 20111 402000033 58002
Loading
Personal Weather Stations






























Interactive Weather Map New forecast layout! Learn more

10-Day Weather Forecast

Advertisements
Track Severe Weather on mobile